SWR23F LSZH-EDDB
Flight info
| Callsign | SWR23F |
|---|---|
| Flight time | 1h 2m |
| Altitude | 39000 |
| Route | DEGE2Y DEGES Z1 ETAGO DCT TIKNI T279 TAMEB T278 KLF KLF1R |
| Aircraft | E190/M-SDE3GILORVW/S |
Departure
| Time | 2026-05-05 18:16 |
|---|---|
| Airport | Zürich Airport (LSZH) |
Arrival
| Time | 2026-05-05 19:18 |
|---|---|
| Airport | Berlin Brandenburg Airport (EDDB) |
| Time | Latitude | Longitude | Altitude | Speed | Heading |
|---|---|---|---|---|---|
| 2026-05-05 17:33 | 47.45509 | 8.56788 | 1419 ft | 0 kts | 140° |
| 2026-05-05 18:12 | 47.45508 | 8.56789 | 1419 ft | 1 kts | 140° |
| 2026-05-05 18:12 | 47.45510 | 8.56814 | 1419 ft | 4 kts | 59° |
| 2026-05-05 18:12 | 47.45531 | 8.56810 | 1419 ft | 3 kts | 336° |
| 2026-05-05 18:12 | 47.45558 | 8.56795 | 1419 ft | 4 kts | 351° |
| 2026-05-05 18:13 | 47.45567 | 8.56818 | 1419 ft | 2 kts | 82° |
| 2026-05-05 18:13 | 47.45570 | 8.56849 | 1419 ft | 4 kts | 83° |
| 2026-05-05 18:13 | 47.45565 | 8.56883 | 1419 ft | 4 kts | 102° |
| 2026-05-05 18:13 | 47.45563 | 8.56926 | 1419 ft | 5 kts | 95° |
| 2026-05-05 18:14 | 47.45562 | 8.56943 | 1419 ft | 1 kts | 95° |
| 2026-05-05 18:14 | 47.45565 | 8.56967 | 1419 ft | 5 kts | 71° |
| 2026-05-05 18:14 | 47.45585 | 8.57001 | 1421 ft | 3 kts | 42° |
| 2026-05-05 18:14 | 47.45607 | 8.57017 | 1423 ft | 6 kts | 18° |
| 2026-05-05 18:15 | 47.45664 | 8.56965 | 1423 ft | 14 kts | 290° |
| 2026-05-05 18:15 | 47.45669 | 8.56916 | 1422 ft | 4 kts | 277° |
| 2026-05-05 18:15 | 47.45698 | 8.56508 | 1417 ft | 81 kts | 276° |
| 2026-05-05 18:15 | 47.45785 | 8.55282 | 1396 ft | 157 kts | 276° |
| 2026-05-05 18:16 | 47.45929 | 8.53389 | 1709 ft | 202 kts | 275° |
| 2026-05-05 18:16 | 47.46102 | 8.51288 | 2902 ft | 211 kts | 276° |
| 2026-05-05 18:16 | 47.46324 | 8.49108 | 4169 ft | 215 kts | 279° |
| 2026-05-05 18:16 | 47.46520 | 8.46928 | 5369 ft | 222 kts | 266° |
| 2026-05-05 18:17 | 47.45937 | 8.44665 | 5910 ft | 254 kts | 233° |
| 2026-05-05 18:17 | 47.44727 | 8.42894 | 7540 ft | 238 kts | 224° |
| 2026-05-05 18:17 | 47.43600 | 8.41156 | 9176 ft | 231 kts | 232° |
| 2026-05-05 18:17 | 47.42846 | 8.39120 | 10678 ft | 224 kts | 251° |
| 2026-05-05 18:18 | 47.42359 | 8.36876 | 11575 ft | 245 kts | 246° |
| 2026-05-05 18:18 | 47.41388 | 8.34576 | 11910 ft | 284 kts | 227° |
| 2026-05-05 18:18 | 47.39709 | 8.32644 | 11968 ft | 333 kts | 209° |
| 2026-05-05 18:18 | 47.37361 | 8.31813 | 11981 ft | 357 kts | 184° |
| 2026-05-05 18:19 | 47.35012 | 8.32523 | 11936 ft | 340 kts | 159° |
| 2026-05-05 18:19 | 47.33197 | 8.34645 | 11851 ft | 331 kts | 131° |
| 2026-05-05 18:19 | 47.32287 | 8.37740 | 11863 ft | 336 kts | 102° |
| 2026-05-05 18:19 | 47.32335 | 8.41232 | 11952 ft | 345 kts | 84° |
| 2026-05-05 18:20 | 47.32760 | 8.44716 | 11838 ft | 349 kts | 80° |
| 2026-05-05 18:20 | 47.33263 | 8.48027 | 12316 ft | 345 kts | 80° |
| 2026-05-05 18:20 | 47.33670 | 8.51573 | 13156 ft | 351 kts | 85° |
| 2026-05-05 18:20 | 47.33899 | 8.55105 | 13947 ft | 358 kts | 89° |
| 2026-05-05 18:21 | 47.34027 | 8.58785 | 14886 ft | 359 kts | 89° |
| 2026-05-05 18:21 | 47.34389 | 8.62450 | 15513 ft | 372 kts | 73° |
| 2026-05-05 18:21 | 47.35565 | 8.65897 | 16141 ft | 385 kts | 50° |
| 2026-05-05 18:21 | 47.37573 | 8.68553 | 16940 ft | 390 kts | 36° |
| 2026-05-05 18:22 | 47.39845 | 8.70856 | 17583 ft | 399 kts | 32° |
| 2026-05-05 18:22 | 47.42184 | 8.73042 | 18399 ft | 402 kts | 32° |
| 2026-05-05 18:22 | 47.44543 | 8.75302 | 19136 ft | 406 kts | 33° |
| 2026-05-05 18:22 | 47.46900 | 8.77653 | 19841 ft | 410 kts | 34° |
| 2026-05-05 18:23 | 47.49170 | 8.79963 | 20551 ft | 411 kts | 34° |
| 2026-05-05 18:23 | 47.51538 | 8.82365 | 21186 ft | 414 kts | 34° |
| 2026-05-05 18:23 | 47.53944 | 8.84758 | 21794 ft | 418 kts | 34° |
| 2026-05-05 18:23 | 47.56373 | 8.87155 | 22398 ft | 421 kts | 34° |
| 2026-05-05 18:24 | 47.58798 | 8.89534 | 22958 ft | 425 kts | 34° |
| 2026-05-05 18:24 | 47.61278 | 8.91937 | 23534 ft | 428 kts | 31° |
| 2026-05-05 18:24 | 47.64030 | 8.93685 | 24042 ft | 432 kts | 17° |
| 2026-05-05 18:24 | 47.66925 | 8.94950 | 24540 ft | 436 kts | 15° |
| 2026-05-05 18:25 | 47.69869 | 8.96132 | 25095 ft | 438 kts | 14° |
| 2026-05-05 18:25 | 47.70870 | 8.96538 | 25258 ft | 440 kts | 15° |
| 2026-05-05 18:25 | 47.75737 | 8.98565 | 26054 ft | 446 kts | 15° |
| 2026-05-05 18:25 | 47.78737 | 8.99836 | 26515 ft | 450 kts | 15° |
| 2026-05-05 18:26 | 47.81585 | 9.01049 | 26930 ft | 453 kts | 15° |
| 2026-05-05 18:26 | 47.84594 | 9.02330 | 27358 ft | 457 kts | 15° |
| 2026-05-05 18:26 | 47.87643 | 9.03631 | 27785 ft | 459 kts | 15° |
| 2026-05-05 18:26 | 47.90407 | 9.04809 | 28159 ft | 462 kts | 15° |
| 2026-05-05 18:27 | 47.93506 | 9.06131 | 28558 ft | 465 kts | 15° |
| 2026-05-05 18:27 | 47.96570 | 9.07439 | 28952 ft | 467 kts | 15° |
| 2026-05-05 18:27 | 47.99638 | 9.08752 | 29510 ft | 466 kts | 15° |
| 2026-05-05 18:27 | 48.02754 | 9.10090 | 30043 ft | 465 kts | 15° |
| 2026-05-05 18:28 | 48.08948 | 9.12746 | 30904 ft | 463 kts | 15° |
| 2026-05-05 18:28 | 48.12042 | 9.14071 | 31379 ft | 461 kts | 15° |
| 2026-05-05 18:28 | 48.15125 | 9.15393 | 31767 ft | 461 kts | 15° |
| 2026-05-05 18:29 | 48.18212 | 9.16737 | 32142 ft | 461 kts | 15° |
| 2026-05-05 18:29 | 48.20894 | 9.17894 | 32472 ft | 460 kts | 15° |
| 2026-05-05 18:29 | 48.23661 | 9.19084 | 32800 ft | 460 kts | 15° |
| 2026-05-05 18:29 | 48.26737 | 9.20405 | 33149 ft | 460 kts | 15° |
| 2026-05-05 18:30 | 48.29808 | 9.21728 | 33550 ft | 457 kts | 16° |
| 2026-05-05 18:30 | 48.32807 | 9.23033 | 33977 ft | 455 kts | 16° |
| 2026-05-05 18:30 | 48.35867 | 9.24353 | 34213 ft | 456 kts | 16° |
| 2026-05-05 18:30 | 48.38919 | 9.25666 | 34450 ft | 457 kts | 16° |
| 2026-05-05 18:31 | 48.41981 | 9.26986 | 34727 ft | 457 kts | 16° |
| 2026-05-05 18:31 | 48.45031 | 9.28306 | 34986 ft | 457 kts | 16° |
| 2026-05-05 18:31 | 48.48094 | 9.29634 | 35256 ft | 457 kts | 16° |
| 2026-05-05 18:31 | 48.51149 | 9.30959 | 35508 ft | 458 kts | 15° |
| 2026-05-05 18:32 | 48.53190 | 9.31845 | 35652 ft | 458 kts | 15° |
| 2026-05-05 18:32 | 48.56291 | 9.33191 | 35907 ft | 459 kts | 15° |
| 2026-05-05 18:32 | 48.59321 | 9.34507 | 36148 ft | 459 kts | 15° |
| 2026-05-05 18:32 | 48.62390 | 9.35843 | 36382 ft | 459 kts | 15° |
| 2026-05-05 18:33 | 48.65471 | 9.37178 | 36637 ft | 459 kts | 15° |
| 2026-05-05 18:33 | 48.68548 | 9.38504 | 36878 ft | 460 kts | 15° |
| 2026-05-05 18:33 | 48.71621 | 9.39827 | 37148 ft | 459 kts | 15° |
| 2026-05-05 18:33 | 48.74699 | 9.41157 | 37392 ft | 459 kts | 15° |
| 2026-05-05 18:34 | 48.77776 | 9.42491 | 37597 ft | 460 kts | 15° |
| 2026-05-05 18:34 | 48.80852 | 9.43829 | 37828 ft | 460 kts | 15° |
| 2026-05-05 18:34 | 48.83938 | 9.45173 | 38034 ft | 460 kts | 15° |
| 2026-05-05 18:34 | 48.87014 | 9.46516 | 38252 ft | 461 kts | 15° |
| 2026-05-05 18:35 | 48.90095 | 9.47860 | 38475 ft | 461 kts | 15° |
| 2026-05-05 18:35 | 48.93181 | 9.49209 | 38679 ft | 460 kts | 15° |
| 2026-05-05 18:35 | 48.96216 | 9.50539 | 39022 ft | 450 kts | 15° |
| 2026-05-05 18:35 | 48.99251 | 9.51872 | 38977 ft | 456 kts | 15° |
| 2026-05-05 18:36 | 49.05418 | 9.54592 | 38801 ft | 465 kts | 15° |
| 2026-05-05 18:36 | 49.11598 | 9.57329 | 38852 ft | 466 kts | 15° |
| 2026-05-05 18:37 | 49.17828 | 9.60090 | 38853 ft | 465 kts | 15° |
| 2026-05-05 18:37 | 49.23943 | 9.62806 | 38832 ft | 466 kts | 15° |
| 2026-05-05 18:38 | 49.30171 | 9.65580 | 38833 ft | 465 kts | 15° |
| 2026-05-05 18:38 | 49.36395 | 9.68358 | 38825 ft | 465 kts | 15° |
| 2026-05-05 18:39 | 49.42602 | 9.71140 | 38828 ft | 465 kts | 15° |
| 2026-05-05 18:39 | 49.48787 | 9.73917 | 38829 ft | 465 kts | 15° |
| 2026-05-05 18:40 | 49.55008 | 9.76717 | 38829 ft | 465 kts | 15° |
| 2026-05-05 18:40 | 49.61215 | 9.79519 | 38830 ft | 463 kts | 15° |
| 2026-05-05 18:41 | 49.67416 | 9.82324 | 38829 ft | 464 kts | 15° |
| 2026-05-05 18:41 | 49.73583 | 9.85123 | 38822 ft | 464 kts | 15° |
| 2026-05-05 18:42 | 49.79770 | 9.87938 | 38825 ft | 463 kts | 15° |
| 2026-05-05 18:42 | 49.85951 | 9.90759 | 38817 ft | 463 kts | 15° |
| 2026-05-05 18:43 | 49.92134 | 9.93587 | 38822 ft | 463 kts | 15° |
| 2026-05-05 18:43 | 49.98266 | 9.96397 | 38820 ft | 463 kts | 15° |
| 2026-05-05 18:44 | 50.04435 | 9.99235 | 38813 ft | 461 kts | 16° |
| 2026-05-05 18:44 | 50.10590 | 10.02073 | 38821 ft | 461 kts | 16° |
| 2026-05-05 18:45 | 50.16759 | 10.04925 | 38815 ft | 462 kts | 16° |
| 2026-05-05 18:45 | 50.22919 | 10.07780 | 38818 ft | 462 kts | 16° |
| 2026-05-05 18:46 | 50.29049 | 10.10629 | 38806 ft | 463 kts | 16° |
| 2026-05-05 18:46 | 50.35219 | 10.13506 | 38810 ft | 463 kts | 16° |
| 2026-05-05 18:47 | 50.41398 | 10.16395 | 38811 ft | 463 kts | 16° |
| 2026-05-05 18:47 | 50.47576 | 10.19291 | 38808 ft | 464 kts | 16° |
| 2026-05-05 18:48 | 50.53749 | 10.22191 | 38707 ft | 456 kts | 16° |
| 2026-05-05 18:48 | 50.56756 | 10.23607 | 38428 ft | 445 kts | 16° |
| 2026-05-05 18:48 | 50.59714 | 10.24997 | 38126 ft | 445 kts | 16° |
| 2026-05-05 18:49 | 50.62671 | 10.26443 | 37850 ft | 457 kts | 22° |
| 2026-05-05 18:49 | 50.65483 | 10.28878 | 37572 ft | 461 kts | 41° |
| 2026-05-05 18:49 | 50.67597 | 10.32622 | 37275 ft | 457 kts | 61° |
| 2026-05-05 18:49 | 50.69139 | 10.36997 | 37017 ft | 455 kts | 66° |
| 2026-05-05 18:50 | 50.70558 | 10.41463 | 36779 ft | 452 kts | 66° |
| 2026-05-05 18:50 | 50.71957 | 10.45881 | 36893 ft | 451 kts | 66° |
| 2026-05-05 18:50 | 50.74792 | 10.54719 | 36851 ft | 456 kts | 66° |
| 2026-05-05 18:51 | 50.77692 | 10.63590 | 36795 ft | 453 kts | 66° |
| 2026-05-05 18:51 | 50.80571 | 10.72446 | 36803 ft | 453 kts | 66° |
| 2026-05-05 18:52 | 50.83516 | 10.81224 | 36808 ft | 454 kts | 64° |
| 2026-05-05 18:52 | 50.86532 | 10.90054 | 36800 ft | 457 kts | 65° |
| 2026-05-05 18:53 | 50.89545 | 10.98950 | 36799 ft | 458 kts | 65° |
| 2026-05-05 18:53 | 50.92547 | 11.07858 | 36800 ft | 458 kts | 65° |
| 2026-05-05 18:54 | 50.95496 | 11.16652 | 36819 ft | 458 kts | 65° |
| 2026-05-05 18:54 | 50.98524 | 11.25704 | 36805 ft | 458 kts | 65° |
| 2026-05-05 18:55 | 51.01479 | 11.34654 | 36834 ft | 457 kts | 65° |
| 2026-05-05 18:55 | 51.04443 | 11.43672 | 36477 ft | 464 kts | 65° |
| 2026-05-05 18:56 | 51.05931 | 11.48222 | 36225 ft | 463 kts | 65° |
| 2026-05-05 18:56 | 51.07406 | 11.52720 | 35739 ft | 465 kts | 65° |
| 2026-05-05 18:56 | 51.08900 | 11.57267 | 35198 ft | 462 kts | 65° |
| 2026-05-05 18:56 | 51.10382 | 11.61785 | 34712 ft | 458 kts | 66° |
| 2026-05-05 18:57 | 51.11851 | 11.66274 | 34197 ft | 456 kts | 66° |
| 2026-05-05 18:57 | 51.13266 | 11.70776 | 33717 ft | 451 kts | 72° |
| 2026-05-05 18:57 | 51.14351 | 11.75444 | 33158 ft | 451 kts | 71° |
| 2026-05-05 18:57 | 51.15778 | 11.79934 | 32606 ft | 458 kts | 62° |
| 2026-05-05 18:58 | 51.17646 | 11.84101 | 31764 ft | 466 kts | 53° |
| 2026-05-05 18:58 | 51.19750 | 11.87964 | 31007 ft | 466 kts | 51° |
| 2026-05-05 18:58 | 51.21918 | 11.91815 | 30297 ft | 470 kts | 50° |
| 2026-05-05 18:58 | 51.24098 | 11.95722 | 29497 ft | 471 kts | 50° |
| 2026-05-05 18:59 | 51.26258 | 11.99627 | 28632 ft | 466 kts | 50° |
| 2026-05-05 18:59 | 51.28378 | 12.03484 | 27814 ft | 458 kts | 50° |
| 2026-05-05 18:59 | 51.30463 | 12.07303 | 27027 ft | 451 kts | 50° |
| 2026-05-05 18:59 | 51.32511 | 12.11063 | 26262 ft | 443 kts | 50° |
| 2026-05-05 19:00 | 51.34499 | 12.14724 | 25492 ft | 437 kts | 50° |
| 2026-05-05 19:00 | 51.36577 | 12.18307 | 24746 ft | 433 kts | 44° |
| 2026-05-05 19:00 | 51.38937 | 12.21143 | 24041 ft | 427 kts | 32° |
| 2026-05-05 19:00 | 51.41500 | 12.23544 | 23343 ft | 423 kts | 29° |
| 2026-05-05 19:01 | 51.44048 | 12.25871 | 22532 ft | 421 kts | 30° |
| 2026-05-05 19:01 | 51.46575 | 12.28181 | 21736 ft | 418 kts | 30° |
| 2026-05-05 19:01 | 51.49060 | 12.30453 | 20949 ft | 413 kts | 30° |
| 2026-05-05 19:01 | 51.51509 | 12.32687 | 20817 ft | 395 kts | 30° |
| 2026-05-05 19:02 | 51.53936 | 12.34902 | 20835 ft | 407 kts | 30° |
| 2026-05-05 19:02 | 51.56399 | 12.37151 | 20860 ft | 409 kts | 30° |
| 2026-05-05 19:02 | 51.58879 | 12.39416 | 20831 ft | 410 kts | 30° |
| 2026-05-05 19:02 | 51.61366 | 12.41691 | 20793 ft | 408 kts | 30° |
| 2026-05-05 19:03 | 51.63840 | 12.43959 | 20802 ft | 409 kts | 29° |
| 2026-05-05 19:03 | 51.66281 | 12.46216 | 20806 ft | 409 kts | 30° |
| 2026-05-05 19:03 | 51.68760 | 12.48513 | 20806 ft | 409 kts | 30° |
| 2026-05-05 19:03 | 51.71225 | 12.50800 | 20802 ft | 409 kts | 30° |
| 2026-05-05 19:04 | 51.73716 | 12.53113 | 20046 ft | 415 kts | 30° |
| 2026-05-05 19:04 | 51.76211 | 12.55425 | 19324 ft | 409 kts | 30° |
| 2026-05-05 19:04 | 51.78663 | 12.57694 | 18591 ft | 404 kts | 30° |
| 2026-05-05 19:04 | 51.81085 | 12.59929 | 17859 ft | 398 kts | 30° |
| 2026-05-05 19:05 | 51.83492 | 12.62147 | 16977 ft | 395 kts | 30° |
| 2026-05-05 19:05 | 51.85864 | 12.64342 | 16153 ft | 391 kts | 30° |
| 2026-05-05 19:05 | 51.88172 | 12.66521 | 15312 ft | 388 kts | 30° |
| 2026-05-05 19:05 | 51.90492 | 12.68707 | 14525 ft | 384 kts | 30° |
| 2026-05-05 19:06 | 51.92790 | 12.70849 | 13725 ft | 374 kts | 30° |
| 2026-05-05 19:06 | 51.94980 | 12.72889 | 13231 ft | 350 kts | 30° |
| 2026-05-05 19:06 | 51.97023 | 12.74794 | 12541 ft | 331 kts | 30° |
| 2026-05-05 19:06 | 51.98976 | 12.76623 | 11803 ft | 317 kts | 30° |
| 2026-05-05 19:07 | 52.00854 | 12.78386 | 11075 ft | 307 kts | 30° |
| 2026-05-05 19:07 | 52.02672 | 12.80105 | 10249 ft | 301 kts | 30° |
| 2026-05-05 19:07 | 52.04484 | 12.81833 | 9324 ft | 300 kts | 30° |
| 2026-05-05 19:07 | 52.06270 | 12.83538 | 8415 ft | 295 kts | 30° |
| 2026-05-05 19:08 | 52.08032 | 12.85207 | 7543 ft | 290 kts | 30° |
| 2026-05-05 19:08 | 52.09750 | 12.86828 | 6675 ft | 287 kts | 30° |
| 2026-05-05 19:08 | 52.11475 | 12.88417 | 5799 ft | 283 kts | 30° |
| 2026-05-05 19:08 | 52.13184 | 12.89976 | 4921 ft | 278 kts | 30° |
| 2026-05-05 19:09 | 52.14863 | 12.91485 | 4036 ft | 275 kts | 30° |
| 2026-05-05 19:09 | 52.16441 | 12.92875 | 4145 ft | 232 kts | 30° |
| 2026-05-05 19:09 | 52.17693 | 12.93977 | 4879 ft | 179 kts | 31° |
| 2026-05-05 19:09 | 52.18740 | 12.94898 | 5814 ft | 173 kts | 29° |
| 2026-05-05 19:10 | 52.19905 | 12.95908 | 5438 ft | 196 kts | 28° |
| 2026-05-05 19:10 | 52.21102 | 12.96979 | 5023 ft | 199 kts | 32° |
| 2026-05-05 19:10 | 52.22156 | 12.98470 | 4565 ft | 202 kts | 46° |
| 2026-05-05 19:10 | 52.23171 | 13.00001 | 4122 ft | 194 kts | 44° |
| 2026-05-05 19:11 | 52.23802 | 13.01831 | 3874 ft | 176 kts | 72° |
| 2026-05-05 19:11 | 52.24136 | 13.03634 | 4192 ft | 161 kts | 70° |
| 2026-05-05 19:11 | 52.24568 | 13.05297 | 4545 ft | 172 kts | 68° |
| 2026-05-05 19:11 | 52.25026 | 13.07159 | 4164 ft | 174 kts | 69° |
| 2026-05-05 19:12 | 52.25452 | 13.08868 | 4381 ft | 155 kts | 68° |
| 2026-05-05 19:12 | 52.25850 | 13.10490 | 4347 ft | 150 kts | 70° |
| 2026-05-05 19:12 | 52.26200 | 13.12014 | 4244 ft | 137 kts | 69° |
| 2026-05-05 19:12 | 52.26547 | 13.13425 | 4013 ft | 132 kts | 69° |
| 2026-05-05 19:13 | 52.26895 | 13.14854 | 3707 ft | 140 kts | 69° |
| 2026-05-05 19:13 | 52.27238 | 13.16311 | 4062 ft | 138 kts | 69° |
| 2026-05-05 19:13 | 52.27613 | 13.17866 | 4329 ft | 161 kts | 68° |
| 2026-05-05 19:13 | 52.28057 | 13.19680 | 4253 ft | 176 kts | 69° |
| 2026-05-05 19:14 | 52.28511 | 13.21583 | 3693 ft | 185 kts | 69° |
| 2026-05-05 19:14 | 52.28969 | 13.23500 | 3277 ft | 176 kts | 69° |
| 2026-05-05 19:14 | 52.29406 | 13.25306 | 2978 ft | 167 kts | 68° |
| 2026-05-05 19:14 | 52.29828 | 13.27056 | 2743 ft | 166 kts | 68° |
| 2026-05-05 19:15 | 52.30250 | 13.28818 | 2515 ft | 166 kts | 69° |
| 2026-05-05 19:15 | 52.30669 | 13.30564 | 2287 ft | 164 kts | 68° |
| 2026-05-05 19:15 | 52.31084 | 13.32306 | 2066 ft | 164 kts | 68° |
| 2026-05-05 19:15 | 52.31487 | 13.34034 | 1834 ft | 162 kts | 68° |
| 2026-05-05 19:16 | 52.31902 | 13.35725 | 1622 ft | 153 kts | 68° |
| 2026-05-05 19:16 | 52.32266 | 13.37248 | 1405 ft | 139 kts | 68° |
| 2026-05-05 19:16 | 52.32601 | 13.38663 | 1211 ft | 127 kts | 67° |
| 2026-05-05 19:16 | 52.32908 | 13.39970 | 1043 ft | 122 kts | 69° |
| 2026-05-05 19:17 | 52.33214 | 13.41243 | 917 ft | 117 kts | 68° |
| 2026-05-05 19:17 | 52.33520 | 13.42550 | 726 ft | 128 kts | 70° |
| 2026-05-05 19:17 | 52.33845 | 13.43869 | 600 ft | 122 kts | 66° |
| 2026-05-05 19:17 | 52.34148 | 13.45172 | 418 ft | 122 kts | 66° |
| 2026-05-05 19:18 | 52.34451 | 13.46447 | 246 ft | 123 kts | 68° |
| 2026-05-05 19:18 | 52.34752 | 13.47715 | 155 ft | 109 kts | 69° |
| 2026-05-05 19:18 | 52.34913 | 13.48403 | 153 ft | 84 kts | 68° |
| 2026-05-05 19:18 | 52.35071 | 13.49049 | 153 ft | 44 kts | 63° |
| 2026-05-05 19:19 | 52.35261 | 13.49402 | 153 ft | 37 kts | 39° |
| 2026-05-05 19:19 | 52.35424 | 13.49618 | 153 ft | 29 kts | 41° |
| 2026-05-05 19:19 | 52.35489 | 13.49835 | 153 ft | 16 kts | 68° |
| 2026-05-05 19:19 | 52.35530 | 13.50008 | 153 ft | 8 kts | 69° |
| 2026-05-05 19:20 | 52.35546 | 13.50074 | 153 ft | 10 kts | 69° |
| 2026-05-05 19:20 | 52.35558 | 13.50123 | 153 ft | 1 kts | 69° |
| 2026-05-05 19:20 | 52.35558 | 13.50126 | 153 ft | 0 kts | 69° |
| 2026-05-05 19:20 | 52.35567 | 13.50163 | 153 ft | 6 kts | 69° |
| 2026-05-05 19:21 | 52.35586 | 13.50243 | 153 ft | 9 kts | 69° |
| 2026-05-05 19:21 | 52.35607 | 13.50333 | 153 ft | 9 kts | 69° |
| 2026-05-05 19:21 | 52.35634 | 13.50445 | 153 ft | 12 kts | 69° |
| 2026-05-05 19:21 | 52.35667 | 13.50581 | 153 ft | 14 kts | 68° |
| 2026-05-05 19:22 | 52.35702 | 13.50733 | 153 ft | 14 kts | 68° |
| 2026-05-05 19:22 | 52.35754 | 13.50826 | 153 ft | 11 kts | 7° |
| 2026-05-05 19:22 | 52.35833 | 13.50787 | 153 ft | 13 kts | 339° |
| 2026-05-05 19:22 | 52.35883 | 13.50728 | 153 ft | 10 kts | 304° |
| 2026-05-05 19:23 | 52.35935 | 13.50642 | 153 ft | 11 kts | 338° |
| 2026-05-05 19:23 | 52.36005 | 13.50597 | 153 ft | 12 kts | 339° |
| 2026-05-05 19:23 | 52.36089 | 13.50543 | 153 ft | 14 kts | 339° |
| 2026-05-05 19:23 | 52.36182 | 13.50485 | 153 ft | 15 kts | 338° |
| 2026-05-05 19:24 | 52.36256 | 13.50439 | 153 ft | 9 kts | 339° |
| 2026-05-05 19:24 | 52.36322 | 13.50397 | 153 ft | 11 kts | 339° |
| 2026-05-05 19:24 | 52.36390 | 13.50428 | 153 ft | 10 kts | 14° |
| 2026-05-05 19:24 | 52.36461 | 13.50390 | 153 ft | 12 kts | 338° |
| 2026-05-05 19:25 | 52.36532 | 13.50345 | 153 ft | 5 kts | 338° |
| 2026-05-05 19:25 | 52.36574 | 13.50323 | 153 ft | 5 kts | 4° |
| 2026-05-05 19:25 | 52.36597 | 13.50375 | 153 ft | 6 kts | 65° |
| 2026-05-05 19:25 | 52.36612 | 13.50441 | 153 ft | 0 kts | 68° |
| 2026-05-05 19:26 | 52.36614 | 13.50447 | 153 ft | 1 kts | 68° |